Coraopolis, PA

1:04 AM EST on December 09, 2016 (GMT -0500)
Pittsburgh International | | Change Station

Elev 1201 ft 40.48 °N, 80.21 °W | Updated 13 minutes ago

Snow
Snow
24 °F
Feels Like 12 °F
N
13
Wind Variable Wind from WSW
Gusts 23 mph

Today
High -- | Low -- °F
--% Chance of Precip.
Yesterday
High -- | Low -- °F
Precip. -- in
Pressure 30.30 in
Visibility 9.0 miles
Clouds Overcast 4000 ft
Windchill 12 °F
Dew Point 17 °F
Humidity 75%
Rainfall 0.00 in
Snow Depth Not available.
7:32 AM 4:54 PM
Waxing Gibbous, 70% visible
METAR KPIT 090551Z 25011G20KT 9SM -SN OVC040 M04/M08 A3022 RMK AO2 SLP258 P0000 60000 T10441083 11028 21044 50001
Pressure 30.30 in
Visibility 9.0 miles
Clouds Overcast 4000 ft
Windchill 12 °F
Dew Point 17 °F
Humidity 75%
Rainfall 0.00 in
Snow Depth Not available.
7:32 AM 4:54 PM
Waxing Gibbous, 70% visible
METAR KPIT 090551Z 25011G20KT 9SM -SN OVC040 M04/M08 A3022 RMK AO2 SLP258 P0000 60000 T10441083 11028 21044 50001

10-Day Weather Forecast

Almanac

Astronomy

Dec. 09, 2016 Rise Set
Actual Time
Civil Twilight
Nautical Twilight
Astronomical Twilight
Moon
Length of Visible Light
Length of Day
Tomorrow will be .
, % of the Moon is Illuminated

Today's Extremes

State Highs State Lows

Community

WunderPhotos

Upload Photos

1,956,374 photos uploaded!

WunderBlog® & News

Nearby

Air Quality

  Air Quality AQ Index Pollutant
Not available.

Snow Depth

Station Depth Elevation

Earthquake Activity

City Distance Mag. Time & Date
Minimum magnitude displayed is 2.5.

Coastal Water Temperatures

Place Temperature

Stations

Nearby Weather Stations

Station Location Temp. Windchill Dew Point Humidity Wind Precip. Elev Updated Type
                   

Watches & Warnings

There are currently no watches in effect.